Time;durP1;ratioP1;P1;durP2;ratioP2;P2;SDS_P1;SDS_P2;PMS_P1;PMS_P2;Temp;Humidity;BMP_temperature;BMP_pressure;BME280_temperature;BME280_humidity;BME280_pressure;Samples;Min_cycle;Max_cycle;Signal;HPM_P1;HPM_P2
2023/12/07 06:54:36;;;;;;;0.30;0.30;;;;;;;9.73;71.95;74821.56;6218148;23;20012;-92
2023/12/07 06:57:06;;;;;;;0.30;0.30;;;;;;;10.54;71.14;74913.16;6216175;23;20013;-92
2023/12/07 06:59:34;;;;;;;0.30;0.30;;;;;;;10.96;69.86;74966.13;6242081;23;19996;-92
2023/12/07 07:02:01;;;;;;;0.30;0.30;;;;;;;11.17;66.94;74984.47;6241156;23;19989;-89
2023/12/07 07:04:29;;;;;;;0.30;0.30;;;;;;;11.46;65.05;75021.91;6190825;23;19989;-92
2023/12/07 07:06:57;;;;;;;0.30;0.30;;;;;;;12.04;63.24;75092.88;6217414;23;19989;-92
2023/12/07 08:19:59;;;;;;;0.20;0.20;;;;;;;12.61;53.95;75159.25;6223347;22;20024;-92
2023/12/07 08:26:06;;;;;;;0.20;0.20;;;;;;;13.04;54.16;75204.53;6241912;23;20003;-91
2023/12/07 08:52:41;;;;;;;0.30;0.30;;;;;;;15.38;49.62;75478.84;6181836;22;20044;-92
2023/12/07 10:16:16;;;;;;;0.20;0.20;;;;;;;15.64;43.98;75510.03;6256681;22;20103;-87
2023/12/07 10:18:41;;;;;;;0.20;0.20;;;;;;;16.07;44.09;75560.41;6219102;23;20077;-88
2023/12/07 10:21:09;;;;;;;0.20;0.20;;;;;;;16.48;41.62;75608.38;6218147;23;20478;-88
2023/12/07 10:23:36;;;;;;;0.20;0.20;;;;;;;16.04;42.94;75556.22;6218810;23;20030;-89
2023/12/07 10:26:05;;;;;;;0.20;0.20;;;;;;;16.29;43.25;75585.59;6219193;23;20022;-88
2023/12/07 10:28:30;;;;;;;0.20;0.20;;;;;;;16.38;43.22;75596.97;6219137;23;20010;-87
2023/12/07 10:33:53;;;;;;;0.20;0.20;;;;;;;15.12;44.54;75454.47;6267594;22;20023;-86
2023/12/07 10:38:59;;;;;;;0.20;0.20;;;;;;;15.99;41.45;75550.81;6239339;22;20028;-84
2023/12/07 10:41:33;;;;;;;0.20;0.20;;;;;;;14.30;45.46;75354.63;6270777;22;20050;-86
2023/12/07 10:44:01;;;;;;;0.20;0.20;;;;;;;15.12;45.15;75445.50;6230697;23;20011;-86
2023/12/07 10:46:30;;;;;;;0.20;0.20;;;;;;;14.42;45.93;75371.75;6203800;23;20499;-85
2023/12/07 10:49:03;;;;;;;0.20;0.20;;;;;;;14.29;45.19;75356.22;6208175;23;20024;-85
2023/12/07 10:51:43;;;;;;;0.20;0.20;;;;;;;14.45;44.66;75366.44;6233203;23;20009;-86
2023/12/07 10:54:15;;;;;;;0.20;0.20;;;;;;;14.75;44.46;75405.16;6227302;23;20001;-85
2023/12/07 10:56:45;;;;;;;0.20;0.20;;;;;;;14.66;44.87;75392.19;6211327;23;20092;-85
2023/12/07 10:59:17;;;;;;;0.20;0.20;;;;;;;13.92;46.35;75306.94;6201367;23;20011;-85
2023/12/07 11:01:43;;;;;;;0.20;0.20;;;;;;;14.61;45.62;75389.00;6229160;23;20026;-85
2023/12/07 11:04:13;;;;;;;0.20;0.20;;;;;;;14.88;44.44;75417.34;6211074;23;20008;-85
2023/12/07 11:06:47;;;;;;;0.20;0.20;;;;;;;14.32;44.70;75354.22;6212892;23;20005;-85
2023/12/07 11:09:21;;;;;;;0.20;0.20;;;;;;;14.45;44.93;75375.38;6204275;23;20072;-86
2023/12/07 11:12:27;;;;;;;0.20;0.20;;;;;;;14.72;44.24;75401.56;6209023;23;20015;-85
2023/12/07 11:14:54;;;;;;;0.20;0.20;;;;;;;14.27;43.88;75346.03;6210496;23;19992;-85
2023/12/07 11:17:28;;;;;;;0.20;0.20;;;;;;;14.89;44.31;75421.34;6244087;23;20020;-85
2023/12/07 11:22:30;;;;;;;0.20;0.20;;;;;;;14.91;43.22;75424.34;6213751;23;20068;-84
2023/12/07 11:25:00;;;;;;;0.20;0.20;;;;;;;14.40;44.42;75364.41;6211577;23;20013;-85
2023/12/07 11:27:31;;;;;;;0.20;0.20;;;;;;;14.47;46.74;75375.00;6177349;23;20001;-85
2023/12/07 11:30:00;;;;;;;0.20;0.20;;;;;;;15.28;46.53;75467.47;6179008;23;20033;-85
2023/12/07 11:38:11;;;;;;;0.20;0.20;;;;;;;15.57;44.16;75504.44;6221948;22;20016;-83
2023/12/07 11:40:40;;;;;;;0.20;0.20;;;;;;;14.99;45.47;75435.50;6214296;23;20005;-83
2023/12/07 11:45:56;;;;;;;0.20;0.20;;;;;;;14.32;45.44;75354.22;6244998;22;20011;-83
2023/12/07 11:48:22;;;;;;;0.20;0.20;;;;;;;15.02;44.41;75431.34;6274548;22;20000;-84
2023/12/07 11:51:01;;;;;;;0.20;0.20;;;;;;;15.02;45.46;75433.53;6245481;22;20004;-82
2023/12/07 11:53:34;;;;;;;0.20;0.20;;;;;;;15.20;45.22;75458.47;6274701;22;20044;-85
2023/12/07 11:56:06;;;;;;;0.20;0.20;;;;;;;15.09;44.95;75450.88;6248802;22;20040;-84
2023/12/07 11:58:39;;;;;;;0.30;0.30;;;;;;;15.06;45.52;75441.69;6248538;22;19996;-84
2023/12/07 12:01:07;;;;;;;0.20;0.20;;;;;;;14.42;46.22;75371.75;6274517;22;20019;-85
2023/12/07 12:03:32;;;;;;;0.20;0.20;;;;;;;14.62;45.58;75390.19;6248315;22;20008;-84
2023/12/07 12:19:07;;;;;;;0.20;0.20;;;;;;;14.54;45.85;75380.00;6259886;22;20024;-83
2023/12/07 12:21:38;;;;;;;0.20;0.20;;;;;;;14.46;45.50;75376.56;6244821;23;20321;-85
2023/12/07 12:24:10;;;;;;;0.20;0.20;;;;;;;14.57;45.97;75384.19;6274116;23;20058;-85
2023/12/07 12:26:42;;;;;;;0.20;0.20;;;;;;;14.43;47.26;75370.19;6249580;23;20012;-84
2023/12/07 12:29:11;;;;;;;0.20;0.20;;;;;;;14.29;46.67;75353.44;6250321;22;19985;-84
2023/12/07 12:31:38;;;;;;;0.20;0.20;;;;;;;14.60;46.42;75385.00;6264676;22;20012;-82
2023/12/07 12:34:08;;;;;;;0.20;0.20;;;;;;;14.51;46.40;75377.00;6276544;22;20008;-84
2023/12/07 12:44:23;;;;;;;0.20;0.20;;;;;;;14.52;46.88;75378.22;6234008;22;20072;-82
2023/12/07 12:47:28;;;;;;;0.20;0.20;;;;;;;14.82;46.98;75413.56;6246105;22;20070;-84
2023/12/07 12:58:45;;;;;;;0.20;0.20;;;;;;;14.23;46.29;75344.06;6221631;22;20224;-88
2023/12/07 13:19:38;;;;;;;0.20;0.20;;;;;;;13.43;49.12;75255.63;6231661;22;20031;-87
2023/12/07 13:22:05;;;;;;;0.20;0.20;;;;;;;13.78;49.78;75291.34;6261271;23;20008;-87
2023/12/07 13:24:52;;;;;;;0.20;0.20;;;;;;;13.72;50.30;75289.13;6241784;23;20012;-87
2023/12/07 13:29:55;;;;;;;0.20;0.20;;;;;;;13.00;50.75;75199.78;6203504;22;20025;-88
2023/12/07 13:32:23;;;;;;;0.20;0.20;;;;;;;13.11;52.10;75207.38;6151182;23;20017;-86
2023/12/07 13:35:02;;;;;;;0.20;0.20;;;;;;;13.39;51.82;75247.47;6178768;23;20009;-86
2023/12/07 13:37:47;;;;;;;0.20;0.20;;;;;;;13.02;51.03;75201.56;6162701;23;19989;-86
2023/12/07 13:40:37;;;;;;;0.20;0.20;;;;;;;13.06;51.95;75209.72;6150744;23;20021;-86
2023/12/07 13:43:50;;;;;;;0.20;0.20;;;;;;;13.32;51.80;75236.91;6123215;23;20017;-86
2023/12/07 13:56:50;;;;;;;0.20;0.20;;;;;;;12.95;51.81;75193.19;6235122;23;20024;-86
2023/12/07 13:59:47;;;;;;;0.20;0.20;;;;;;;12.94;52.39;75198.13;6215675;23;20000;-86
2023/12/07 14:02:43;;;;;;;0.20;0.20;;;;;;;12.87;52.98;75181.44;6241206;23;20011;-87
2023/12/07 14:05:18;;;;;;;0.20;0.20;;;;;;;13.21;53.65;75223.69;6215286;23;20043;-86
2023/12/07 14:07:53;;;;;;;0.20;0.20;;;;;;;12.77;53.33;75175.03;6218164;23;19992;-86
2023/12/07 14:10:23;;;;;;;0.20;0.20;;;;;;;13.20;54.04;75222.50;6236652;22;20071;-86
2023/12/07 14:12:50;;;;;;;0.20;0.20;;;;;;;12.80;53.69;75182.00;6258949;23;20047;-85
2023/12/07 14:15:17;;;;;;;0.20;0.20;;;;;;;12.52;52.93;75146.31;6261453;23;20047;-86
2023/12/07 14:17:45;;;;;;;0.20;0.20;;;;;;;12.57;53.86;75149.53;6261446;23;19996;-87
2023/12/07 14:20:16;;;;;;;0.20;0.20;;;;;;;12.32;53.83;75125.75;6245579;23;19992;-87
2023/12/07 14:22:52;;;;;;;0.20;0.20;;;;;;;12.66;53.48;75159.09;6268902;23;20000;-86
2023/12/07 14:25:19;;;;;;;0.30;0.30;;;;;;;12.52;53.20;75143.53;6241010;23;19992;-86
2023/12/07 14:27:46;;;;;;;0.20;0.20;;;;;;;12.35;53.79;75125.38;6197444;23;20019;-86
2023/12/07 14:30:16;;;;;;;0.20;0.20;;;;;;;12.21;52.90;75106.47;6241810;23;20012;-86
2023/12/07 14:32:53;;;;;;;0.20;0.20;;;;;;;12.53;53.92;75144.13;6265951;23;20060;-86
2023/12/07 14:35:24;;;;;;;0.20;0.20;;;;;;;12.39;52.92;75130.16;6267163;23;20003;-86
2023/12/07 14:40:27;;;;;;;0.30;0.30;;;;;;;12.29;53.64;75118.78;6241897;22;20050;-86
2023/12/07 14:42:54;;;;;;;0.20;0.20;;;;;;;12.27;53.41;75116.41;6240623;23;20016;-85
2023/12/07 14:45:29;;;;;;;0.20;0.20;;;;;;;12.45;53.72;75137.94;6215759;23;20064;-86
2023/12/07 14:48:11;;;;;;;0.20;0.20;;;;;;;11.87;53.78;75069.75;6271703;22;20420;-85
2023/12/07 14:51:10;;;;;;;0.20;0.20;;;;;;;12.06;54.87;75089.72;6222602;23;20007;-86
2023/12/07 14:54:09;;;;;;;0.20;0.20;;;;;;;11.63;54.46;75038.28;6237870;23;20596;-85
2023/12/07 14:56:45;;;;;;;0.22;0.22;;;;;;;11.78;54.31;75062.34;6223201;23;20014;-86
2023/12/07 14:59:14;;;;;;;0.20;0.20;;;;;;;11.68;55.68;75047.63;6214678;23;20015;-86
2023/12/07 15:01:43;;;;;;;0.20;0.20;;;;;;;11.58;55.16;75037.84;6239218;23;20453;-86
2023/12/07 15:04:15;;;;;;;0.20;0.20;;;;;;;11.33;57.21;75003.59;6230923;23;20010;-85
2023/12/07 15:06:44;;;;;;;0.20;0.20;;;;;;;11.42;56.36;75019.91;6232307;23;20004;-85
2023/12/07 15:09:10;;;;;;;0.20;0.20;;;;;;;11.14;57.42;74986.44;6234464;23;20071;-86
2023/12/07 15:11:36;;;;;;;0.20;0.20;;;;;;;11.39;58.09;75013.53;6233911;23;20004;-86
2023/12/07 15:14:10;;;;;;;0.20;0.20;;;;;;;11.16;58.48;74988.81;6207589;23;20008;-86
2023/12/07 15:16:40;;;;;;;0.20;0.20;;;;;;;11.15;60.58;74987.63;6213667;23;20024;-86
2023/12/07 15:19:08;;;;;;;0.20;0.20;;;;;;;10.85;60.34;74955.13;6241200;23;19988;-86
2023/12/07 15:21:37;;;;;;;0.30;0.30;;;;;;;10.74;62.49;74934.88;6260692;23;20012;-86
2023/12/07 15:24:13;;;;;;;0.20;0.20;;;;;;;10.29;60.35;74881.75;6214128;23;20038;-86
2023/12/07 15:26:50;;;;;;;0.30;0.30;;;;;;;10.10;60.21;74862.38;6238515;23;20035;-86
2023/12/07 15:29:15;;;;;;;0.20;0.20;;;;;;;10.35;60.98;74894.44;6237482;23;20012;-86
2023/12/07 15:31:42;;;;;;;0.25;0.25;;;;;;;10.03;63.01;74854.03;6237807;23;20038;-85
2023/12/07 15:34:16;;;;;;;0.20;0.20;;;;;;;10.39;61.63;74893.09;6237559;23;20091;-85
2023/12/07 15:36:43;;;;;;;0.20;0.20;;;;;;;10.69;57.90;74936.63;6234714;23;20012;-86
2023/12/07 15:39:11;;;;;;;0.20;0.20;;;;;;;10.19;61.02;74878.06;6234481;23;20038;-85
2023/12/07 15:41:43;;;;;;;0.20;0.20;;;;;;;10.16;63.18;74872.31;6209783;23;20034;-85
2023/12/07 15:44:11;;;;;;;0.20;0.20;;;;;;;10.03;66.26;74850.66;6213426;23;20025;-84
2023/12/07 15:46:47;;;;;;;0.20;0.20;;;;;;;10.48;66.87;74906.59;6235608;23;20690;-83
2023/12/07 15:49:22;;;;;;;0.28;0.28;;;;;;;10.05;68.00;74855.81;6237592;23;19992;-84
2023/12/07 15:51:51;;;;;;;0.30;0.30;;;;;;;9.82;65.56;74826.78;6237579;23;20079;-85
2023/12/07 15:54:43;;;;;;;0.20;0.20;;;;;;;10.02;64.16;74855.00;6234307;23;20005;-86
2023/12/07 15:57:11;;;;;;;0.20;0.20;;;;;;;9.81;67.59;74833.88;6258604;23;20032;-86
2023/12/07 15:59:38;;;;;;;0.20;0.20;;;;;;;9.82;70.32;74826.78;6232111;23;20005;-85
2023/12/07 16:02:08;;;;;;;0.20;0.20;;;;;;;9.78;70.79;74821.41;6227077;23;20013;-85
2023/12/07 16:04:35;;;;;;;0.20;0.20;;;;;;;9.72;72.96;74820.38;6234539;23;20020;-85
2023/12/07 16:07:11;;;;;;;0.20;0.20;;;;;;;10.07;72.50;74858.22;6211145;23;20084;-85
2023/12/07 16:09:42;;;;;;;0.20;0.20;;;;;;;9.91;66.94;74843.06;6209676;23;20007;-86
2023/12/07 16:12:18;;;;;;;0.20;0.20;;;;;;;9.88;70.43;74839.47;6236336;23;20085;-86
2023/12/07 16:14:43;;;;;;;0.20;0.20;;;;;;;9.72;72.87;74823.13;6184734;23;20016;-86
2023/12/07 16:17:17;;;;;;;0.20;0.20;;;;;;;10.12;73.87;74869.69;6211213;23;20000;-85
2023/12/07 16:19:46;;;;;;;0.20;0.20;;;;;;;9.54;74.38;74799.47;6181729;23;20009;-86
2023/12/07 16:22:14;;;;;;;0.20;0.20;;;;;;;9.88;71.57;74836.13;6237312;23;20004;-87
2023/12/07 16:24:47;;;;;;;0.20;0.20;;;;;;;9.67;69.55;74817.16;6152266;23;20032;-86
2023/12/07 16:27:21;;;;;;;0.20;0.20;;;;;;;9.42;71.39;74780.22;6181826;23;20004;-86
2023/12/07 16:30:11;;;;;;;0.30;0.30;;;;;;;9.50;77.49;74785.81;6201565;23;20009;-86
2023/12/07 16:46:06;;;;;;;0.30;0.30;;;;;;;9.21;83.49;74760.06;6204792;22;20056;-88
2023/12/07 16:48:46;;;;;;;0.20;0.20;;;;;;;9.06;84.17;74737.88;6219196;23;20040;-87
2023/12/07 16:51:15;;;;;;;0.20;0.20;;;;;;;9.13;84.59;74751.72;6203663;23;20017;-86
2023/12/07 16:53:58;;;;;;;;;;;;;;;;;;;;;
2023/12/07 16:56:32;;;;;;;0.25;0.25;;;;;;;8.95;86.43;74729.63;6215246;23;20009;-89
2023/12/07 16:59:05;;;;;;;0.20;0.20;;;;;;;8.68;86.72;74698.63;6210682;23;20008;-88
2023/12/07 17:01:43;;;;;;;0.30;0.30;;;;;;;8.58;85.99;74687.28;6236102;23;20020;-88
2023/12/07 17:04:21;;;;;;;0.30;0.30;;;;;;;8.79;86.74;74709.00;6186060;23;20009;-88
2023/12/07 17:06:48;;;;;;;0.30;0.30;;;;;;;8.66;87.49;74696.22;6236925;23;20012;-91
2023/12/07 17:09:18;;;;;;;0.30;0.30;;;;;;;8.91;87.42;74731.59;6186489;23;20009;-88
2023/12/07 17:11:57;;;;;;;0.30;0.30;;;;;;;8.57;87.03;74685.50;6237641;23;20013;-89
2023/12/07 17:15:05;;;;;;;0.30;0.30;;;;;;;8.96;87.70;74730.84;6203315;23;20025;-90
2023/12/07 17:18:15;;;;;;;0.20;0.20;;;;;;;8.30;86.99;74651.69;6241419;23;19993;-90
2023/12/07 17:21:54;;;;;;;0.30;0.30;;;;;;;8.20;87.94;74639.19;6238490;23;19997;-90
2023/12/07 17:25:04;;;;;;;0.25;0.25;;;;;;;8.48;87.59;74680.28;6241387;23;20252;-90
2023/12/07 17:28:10;;;;;;;0.30;0.30;;;;;;;8.69;88.16;74694.31;6216645;23;20004;-89
2023/12/07 17:31:01;;;;;;;0.30;0.30;;;;;;;8.56;88.18;74684.31;6240707;23;20035;-88
2023/12/07 17:34:09;;;;;;;0.30;0.30;;;;;;;8.54;88.17;74676.41;6241340;23;19993;-88
2023/12/07 17:36:48;;;;;;;0.20;0.20;;;;;;;8.01;87.86;74622.63;6237607;23;20019;-89
2023/12/07 17:39:36;;;;;;;0.30;0.30;;;;;;;7.68;88.99;74583.88;6209702;23;20039;-88
2023/12/07 17:42:09;;;;;;;0.30;0.30;;;;;;;8.14;89.51;74635.38;6186500;23;19997;-89
2023/12/07 17:45:29;;;;;;;0.30;0.30;;;;;;;7.87;90.08;74601.63;6165926;23;19997;-89
2023/12/07 17:51:57;;;;;;;0.30;0.30;;;;;;;8.02;91.53;74624.41;6211776;23;20023;-90
2023/12/07 17:55:05;;;;;;;0.30;0.30;;;;;;;8.24;90.90;74650.06;6212664;23;20084;-88
2023/12/07 18:04:18;;;;;;;0.30;0.30;;;;;;;8.47;88.29;74674.19;6212949;23;20071;-89
2023/12/07 18:25:55;;;;;;;0.30;0.30;;;;;;;7.77;88.80;74586.34;6233895;23;20029;-87
2023/12/07 18:32:23;;;;;;;0.30;0.30;;;;;;;8.11;89.78;74631.81;6243694;23;20028;-89
2023/12/07 18:35:32;;;;;;;0.20;0.20;;;;;;;7.55;89.23;74566.81;6239832;23;20027;-89
2023/12/07 18:48:42;;;;;;;0.30;0.30;;;;;;;8.06;88.92;74623.09;6244180;23;20068;-88
2023/12/07 18:51:16;;;;;;;0.30;0.30;;;;;;;7.57;88.71;74571.97;6192012;23;20009;-87
2023/12/07 19:42:00;;;;;;;0.30;0.30;;;;;;;7.61;87.14;74570.63;6221089;22;20024;-88
2023/12/07 20:01:35;;;;;;;0.30;0.30;;;;;;;7.31;85.36;74544.31;6219140;22;20088;-88
2023/12/07 20:04:45;;;;;;;0.30;0.30;;;;;;;7.23;85.59;74532.00;6214050;23;20020;-88
2023/12/07 20:07:32;;;;;;;0.30;0.30;;;;;;;7.63;84.60;74572.41;6163419;23;20015;-89
2023/12/07 20:13:50;;;;;;;0.30;0.30;;;;;;;7.25;88.68;74531.66;6242800;23;19907;-89
2023/12/07 20:16:49;;;;;;;0.30;0.30;;;;;;;7.64;87.73;74573.59;6242438;23;20040;-90
2023/12/07 20:19:56;;;;;;;0.30;0.30;;;;;;;7.58;87.20;74564.28;6199605;23;20047;-89
2023/12/07 20:25:37;;;;;;;0.30;0.30;;;;;;;7.55;90.29;74566.22;6207031;23;20074;-89
2023/12/07 20:31:46;;;;;;;0.30;0.30;;;;;;;6.86;91.14;74488.50;6154861;23;20049;-87
2023/12/07 20:34:56;;;;;;;0.30;0.30;;;;;;;6.87;91.46;74486.34;6239860;23;20003;-89
2023/12/07 20:38:12;;;;;;;0.20;0.20;;;;;;;7.34;90.15;74545.13;6204009;23;20004;-88
2023/12/07 20:50:02;;;;;;;0.20;0.20;;;;;;;6.85;92.29;74484.56;6244372;23;20035;-89
2023/12/07 21:05:37;;;;;;;0.30;0.30;;;;;;;7.24;88.16;74530.44;6208886;23;20011;-87
2023/12/07 21:14:09;;;;;;;0.30;0.30;;;;;;;7.20;88.23;74525.69;6228007;23;20229;-89
2023/12/07 21:20:44;;;;;;;0.22;0.22;;;;;;;7.22;89.94;74525.31;6245031;23;20042;-89
2023/12/07 21:23:27;;;;;;;0.30;0.30;;;;;;;6.97;89.99;74498.28;6193064;23;20004;-88
2023/12/07 21:26:16;;;;;;;0.30;0.30;;;;;;;7.18;89.74;74519.97;6137897;23;20056;-88
2023/12/07 21:29:19;;;;;;;0.30;0.30;;;;;;;6.68;90.42;74470.41;6206747;22;20011;-88
2023/12/07 21:32:52;;;;;;;0.30;0.30;;;;;;;7.03;91.31;74505.44;6181555;23;20016;-87
2023/12/07 22:15:35;;;;;;;0.30;0.30;;;;;;;6.79;91.31;74477.44;6244713;23;20009;-87
2023/12/07 22:19:05;;;;;;;0.30;0.30;;;;;;;6.34;91.11;74427.78;6204259;23;20015;-88
2023/12/07 22:22:08;;;;;;;0.30;0.30;;;;;;;6.88;90.12;74484.81;6211623;23;20030;-88
2023/12/07 22:25:02;;;;;;;0.30;0.30;;;;;;;6.17;90.76;74405.34;6114737;23;20064;-88
2023/12/07 22:31:30;;;;;;;0.30;0.30;;;;;;;6.17;91.58;74404.75;6213157;23;20004;-88
2023/12/07 22:37:49;;;;;;;0.30;0.30;;;;;;;6.55;92.66;74449.44;6213132;23;20000;-86
2023/12/07 22:41:19;;;;;;;0.30;0.30;;;;;;;6.65;91.54;74466.84;6116275;23;20085;-88
2023/12/07 22:44:28;;;;;;;0.30;0.30;;;;;;;6.66;91.26;74467.44;6093911;23;20026;-88
2023/12/07 22:56:19;;;;;;;;;;;;;;;;;;;;;
2023/12/07 22:59:23;;;;;;;0.30;0.30;;;;;;;6.57;91.66;74457.31;6241639;23;20012;-88
2023/12/07 23:02:41;;;;;;;0.30;0.30;;;;;;;6.45;92.28;74440.88;6242266;23;20000;-88
2023/12/07 23:16:26;;;;;;;0.30;0.30;;;;;;;6.23;93.73;74417.41;6207330;22;20031;-87
2023/12/07 23:19:41;;;;;;;0.30;0.30;;;;;;;6.44;94.74;74441.81;6213317;23;20001;-87
2023/12/07 23:23:30;;;;;;;;;;;;;;;;;;;;;
2023/12/07 23:26:54;;;;;;;0.30;0.30;;;;;;;6.29;94.25;74419.66;6243819;23;20020;-88
2023/12/07 23:30:10;;;;;;;0.30;0.30;;;;;;;6.29;95.46;74419.66;6235006;23;20008;-87
2023/12/07 23:53:07;;;;;;;0.30;0.30;;;;;;;5.59;95.71;74340.22;6203246;22;20034;-86
2023/12/07 23:56:37;;;;;;;0.30;0.30;;;;;;;5.52;95.45;74329.16;6213192;23;20057;-88
